sensor_id;sensor_type;location;lat;lon;timestamp;temperature;humidity
8676;DHT22;4375;52.486;13.424;2023-03-20T00:01:21;12.20;99.90
8676;DHT22;4375;52.486;13.424;2023-03-20T00:03:51;12.10;99.90
8676;DHT22;4375;52.486;13.424;2023-03-20T00:06:22;12.10;99.90
8676;DHT22;4375;52.486;13.424;2023-03-20T00:08:51;12.00;99.90
8676;DHT22;4375;52.486;13.424;2023-03-20T00:11:47;12.00;99.90
8676;DHT22;4375;52.486;13.424;2023-03-20T00:14:16;12.00;99.90
8676;DHT22;4375;52.486;13.424;2023-03-20T00:16:44;12.00;99.90
8676;DHT22;4375;52.486;13.424;2023-03-20T00:21:47;11.80;99.90
8676;DHT22;4375;52.486;13.424;2023-03-20T00:24:14;11.70;99.90
8676;DHT22;4375;52.486;13.424;2023-03-20T00:26:41;11.80;99.90
8676;DHT22;4375;52.486;13.424;2023-03-20T00:29:17;11.70;99.90
8676;DHT22;4375;52.486;13.424;2023-03-20T00:31:44;11.70;99.90
8676;DHT22;4375;52.486;13.424;2023-03-20T00:34:15;11.70;99.90
8676;DHT22;4375;52.486;13.424;2023-03-20T00:36:42;11.60;99.90
8676;DHT22;4375;52.486;13.424;2023-03-20T00:39:07;11.60;99.90
8676;DHT22;4375;52.486;13.424;2023-03-20T00:44:35;11.50;99.90
8676;DHT22;4375;52.486;13.424;2023-03-20T00:47:22;11.50;99.90
8676;DHT22;4375;52.486;13.424;2023-03-20T00:49:50;11.40;99.90
8676;DHT22;4375;52.486;13.424;2023-03-20T00:52:18;11.40;99.90
8676;DHT22;4375;52.486;13.424;2023-03-20T00:54:44;11.30;99.90
8676;DHT22;4375;52.486;13.424;2023-03-20T00:57:28;11.20;99.90
8676;DHT22;4375;52.486;13.424;2023-03-20T01:00:04;11.20;99.90
8676;DHT22;4375;52.486;13.424;2023-03-20T01:02:30;11.20;99.90
8676;DHT22;4375;52.486;13.424;2023-03-20T01:04:56;11.20;99.90
8676;DHT22;4375;52.486;13.424;2023-03-20T01:07:22;11.20;99.90
8676;DHT22;4375;52.486;13.424;2023-03-20T01:09:48;11.10;99.90
8676;DHT22;4375;52.486;13.424;2023-03-20T01:12:14;11.00;99.90
8676;DHT22;4375;52.486;13.424;2023-03-20T01:14:41;11.00;99.90
8676;DHT22;4375;52.486;13.424;2023-03-20T01:17:19;11.10;99.90
8676;DHT22;4375;52.486;13.424;2023-03-20T01:19:45;11.00;99.90
8676;DHT22;4375;52.486;13.424;2023-03-20T01:22:11;11.00;99.90
8676;DHT22;4375;52.486;13.424;2023-03-20T01:24:38;11.00;99.90
8676;DHT22;4375;52.486;13.424;2023-03-20T01:27:08;11.00;99.90
8676;DHT22;4375;52.486;13.424;2023-03-20T01:29:36;11.00;99.90
8676;DHT22;4375;52.486;13.424;2023-03-20T01:32:02;11.00;99.90
8676;DHT22;4375;52.486;13.424;2023-03-20T01:34:28;11.00;99.90
8676;DHT22;4375;52.486;13.424;2023-03-20T01:36:56;10.90;99.90
8676;DHT22;4375;52.486;13.424;2023-03-20T01:39:30;10.90;99.90
8676;DHT22;4375;52.486;13.424;2023-03-20T01:41:56;10.90;99.90
8676;DHT22;4375;52.486;13.424;2023-03-20T01:44:25;11.00;99.90
8676;DHT22;4375;52.486;13.424;2023-03-20T01:46:52;11.00;99.90
8676;DHT22;4375;52.486;13.424;2023-03-20T01:51:44;11.00;99.90
8676;DHT22;4375;52.486;13.424;2023-03-20T01:54:15;11.00;99.90
8676;DHT22;4375;52.486;13.424;2023-03-20T01:56:49;11.00;99.90
8676;DHT22;4375;52.486;13.424;2023-03-20T01:59:25;10.90;99.90
8676;DHT22;4375;52.486;13.424;2023-03-20T02:01:52;10.90;99.90
8676;DHT22;4375;52.486;13.424;2023-03-20T02:04:23;11.00;99.90
8676;DHT22;4375;52.486;13.424;2023-03-20T02:06:50;11.00;99.90
8676;DHT22;4375;52.486;13.424;2023-03-20T02:09:16;11.00;99.90
8676;DHT22;4375;52.486;13.424;2023-03-20T02:11:44;11.00;99.90
8676;DHT22;4375;52.486;13.424;2023-03-20T02:14:11;11.10;99.90
8676;DHT22;4375;52.486;13.424;2023-03-20T02:16:37;11.10;99.90
8676;DHT22;4375;52.486;13.424;2023-03-20T02:19:05;11.10;99.90
8676;DHT22;4375;52.486;13.424;2023-03-20T02:27:04;10.80;99.90
8676;DHT22;4375;52.486;13.424;2023-03-20T02:41:28;10.90;99.90
8676;DHT22;4375;52.486;13.424;2023-03-20T02:43:59;10.90;99.90
8676;DHT22;4375;52.486;13.424;2023-03-20T02:52:19;10.80;99.90
8676;DHT22;4375;52.486;13.424;2023-03-20T02:55:19;10.80;99.90
8676;DHT22;4375;52.486;13.424;2023-03-20T02:58:13;10.80;99.90
8676;DHT22;4375;52.486;13.424;2023-03-20T03:03:59;10.80;99.90
8676;DHT22;4375;52.486;13.424;2023-03-20T03:06:30;10.80;99.90
8676;DHT22;4375;52.486;13.424;2023-03-20T03:09:06;10.90;99.90
8676;DHT22;4375;52.486;13.424;2023-03-20T03:11:37;11.00;99.90
8676;DHT22;4375;52.486;13.424;2023-03-20T03:14:05;11.10;99.90
8676;DHT22;4375;52.486;13.424;2023-03-20T03:16:36;11.00;99.90
8676;DHT22;4375;52.486;13.424;2023-03-20T03:19:08;11.00;99.90
8676;DHT22;4375;52.486;13.424;2023-03-20T03:21:38;10.90;99.90
8676;DHT22;4375;52.486;13.424;2023-03-20T03:24:05;10.90;99.90
8676;DHT22;4375;52.486;13.424;2023-03-20T03:26:33;10.80;99.90
8676;DHT22;4375;52.486;13.424;2023-03-20T03:29:05;10.80;99.90
8676;DHT22;4375;52.486;13.424;2023-03-20T03:31:32;10.80;99.90
8676;DHT22;4375;52.486;13.424;2023-03-20T03:33:59;10.90;99.90
8676;DHT22;4375;52.486;13.424;2023-03-20T03:36:41;11.00;99.90
8676;DHT22;4375;52.486;13.424;2023-03-20T03:42:44;10.90;99.90
8676;DHT22;4375;52.486;13.424;2023-03-20T03:45:16;10.90;99.90
8676;DHT22;4375;52.486;13.424;2023-03-20T03:47:53;10.80;99.90
8676;DHT22;4375;52.486;13.424;2023-03-20T03:50:47;10.80;99.90
8676;DHT22;4375;52.486;13.424;2023-03-20T03:53:18;10.90;99.90
8676;DHT22;4375;52.486;13.424;2023-03-20T03:55:52;10.80;99.90
8676;DHT22;4375;52.486;13.424;2023-03-20T03:58:43;10.80;99.90
8676;DHT22;4375;52.486;13.424;2023-03-20T04:01:09;10.90;99.90
8676;DHT22;4375;52.486;13.424;2023-03-20T04:03:45;10.90;99.90
8676;DHT22;4375;52.486;13.424;2023-03-20T04:06:12;10.80;99.90
8676;DHT22;4375;52.486;13.424;2023-03-20T04:08:40;10.80;99.90
8676;DHT22;4375;52.486;13.424;2023-03-20T04:11:07;10.90;99.90
8676;DHT22;4375;52.486;13.424;2023-03-20T04:13:37;10.90;99.90
8676;DHT22;4375;52.486;13.424;2023-03-20T04:16:03;10.80;99.90
8676;DHT22;4375;52.486;13.424;2023-03-20T04:18:28;10.80;99.90
8676;DHT22;4375;52.486;13.424;2023-03-20T04:20:54;10.80;99.90
8676;DHT22;4375;52.486;13.424;2023-03-20T04:23:19;10.70;99.90
8676;DHT22;4375;52.486;13.424;2023-03-20T04:25:45;10.70;99.90
8676;DHT22;4375;52.486;13.424;2023-03-20T04:28:11;10.70;99.90
8676;DHT22;4375;52.486;13.424;2023-03-20T04:30:40;10.70;99.90
8676;DHT22;4375;52.486;13.424;2023-03-20T04:33:06;10.70;99.90
8676;DHT22;4375;52.486;13.424;2023-03-20T04:35:32;10.80;99.90
8676;DHT22;4375;52.486;13.424;2023-03-20T04:37:57;10.70;99.90
8676;DHT22;4375;52.486;13.424;2023-03-20T04:40:23;10.80;99.90
8676;DHT22;4375;52.486;13.424;2023-03-20T04:42:48;10.70;99.90
8676;DHT22;4375;52.486;13.424;2023-03-20T04:45:14;10.80;99.90
8676;DHT22;4375;52.486;13.424;2023-03-20T04:47:40;10.80;99.90
8676;DHT22;4375;52.486;13.424;2023-03-20T04:50:06;10.70;99.90
8676;DHT22;4375;52.486;13.424;2023-03-20T04:52:32;10.70;99.90
8676;DHT22;4375;52.486;13.424;2023-03-20T04:54:57;10.70;99.90
8676;DHT22;4375;52.486;13.424;2023-03-20T04:57:23;10.80;99.90
8676;DHT22;4375;52.486;13.424;2023-03-20T04:59:49;10.70;99.90
8676;DHT22;4375;52.486;13.424;2023-03-20T05:02:14;10.80;99.90
8676;DHT22;4375;52.486;13.424;2023-03-20T05:04:42;10.80;99.90
8676;DHT22;4375;52.486;13.424;2023-03-20T05:07:08;10.80;99.90
8676;DHT22;4375;52.486;13.424;2023-03-20T05:09:33;10.80;99.90
8676;DHT22;4375;52.486;13.424;2023-03-20T05:11:59;10.80;99.90
8676;DHT22;4375;52.486;13.424;2023-03-20T05:14:25;10.70;99.90
8676;DHT22;4375;52.486;13.424;2023-03-20T05:16:50;10.70;99.90
8676;DHT22;4375;52.486;13.424;2023-03-20T05:19:16;10.60;99.90
8676;DHT22;4375;52.486;13.424;2023-03-20T05:21:42;10.60;99.90
8676;DHT22;4375;52.486;13.424;2023-03-20T05:24:07;10.70;99.90
8676;DHT22;4375;52.486;13.424;2023-03-20T05:26:33;10.80;99.90
8676;DHT22;4375;52.486;13.424;2023-03-20T05:28:59;10.80;99.90
8676;DHT22;4375;52.486;13.424;2023-03-20T05:31:24;10.70;99.90
8676;DHT22;4375;52.486;13.424;2023-03-20T05:33:50;10.70;99.90
8676;DHT22;4375;52.486;13.424;2023-03-20T05:36:16;10.80;99.90
8676;DHT22;4375;52.486;13.424;2023-03-20T05:38:41;10.80;99.90
8676;DHT22;4375;52.486;13.424;2023-03-20T05:41:07;10.80;99.90
8676;DHT22;4375;52.486;13.424;2023-03-20T05:43:33;10.90;99.90
8676;DHT22;4375;52.486;13.424;2023-03-20T05:45:58;10.90;99.90
8676;DHT22;4375;52.486;13.424;2023-03-20T05:48:24;10.90;99.90
8676;DHT22;4375;52.486;13.424;2023-03-20T05:50:49;10.90;99.90
8676;DHT22;4375;52.486;13.424;2023-03-20T05:53:15;10.90;99.90
8676;DHT22;4375;52.486;13.424;2023-03-20T05:55:41;11.00;99.90
8676;DHT22;4375;52.486;13.424;2023-03-20T05:58:09;11.00;99.90
8676;DHT22;4375;52.486;13.424;2023-03-20T06:00:35;11.00;99.90
8676;DHT22;4375;52.486;13.424;2023-03-20T06:03:00;11.00;99.90
8676;DHT22;4375;52.486;13.424;2023-03-20T06:05:26;11.00;99.90
8676;DHT22;4375;52.486;13.424;2023-03-20T06:07:52;11.00;99.90
8676;DHT22;4375;52.486;13.424;2023-03-20T06:10:17;11.00;99.90
8676;DHT22;4375;52.486;13.424;2023-03-20T06:12:45;11.00;99.90
8676;DHT22;4375;52.486;13.424;2023-03-20T06:15:11;11.10;99.90
8676;DHT22;4375;52.486;13.424;2023-03-20T06:17:36;11.10;99.90
8676;DHT22;4375;52.486;13.424;2023-03-20T06:20:02;11.10;99.90
8676;DHT22;4375;52.486;13.424;2023-03-20T06:22:28;11.10;99.90
8676;DHT22;4375;52.486;13.424;2023-03-20T06:24:54;11.00;99.90
8676;DHT22;4375;52.486;13.424;2023-03-20T06:27:21;11.10;99.90
8676;DHT22;4375;52.486;13.424;2023-03-20T06:29:47;11.10;99.90
8676;DHT22;4375;52.486;13.424;2023-03-20T06:32:12;11.00;99.90
8676;DHT22;4375;52.486;13.424;2023-03-20T06:34:39;11.00;99.90
8676;DHT22;4375;52.486;13.424;2023-03-20T06:37:05;11.00;99.90
8676;DHT22;4375;52.486;13.424;2023-03-20T06:39:31;10.90;99.90
8676;DHT22;4375;52.486;13.424;2023-03-20T06:41:57;10.80;99.90
8676;DHT22;4375;52.486;13.424;2023-03-20T06:44:22;10.80;99.90
8676;DHT22;4375;52.486;13.424;2023-03-20T06:46:49;10.80;99.90
8676;DHT22;4375;52.486;13.424;2023-03-20T06:49:15;10.80;99.90
8676;DHT22;4375;52.486;13.424;2023-03-20T06:51:41;10.70;99.90
8676;DHT22;4375;52.486;13.424;2023-03-20T06:54:06;10.70;99.90
8676;DHT22;4375;52.486;13.424;2023-03-20T06:56:32;10.60;99.90
8676;DHT22;4375;52.486;13.424;2023-03-20T06:58:58;10.40;99.90
8676;DHT22;4375;52.486;13.424;2023-03-20T07:01:23;10.40;99.90
8676;DHT22;4375;52.486;13.424;2023-03-20T07:03:49;10.40;99.90
8676;DHT22;4375;52.486;13.424;2023-03-20T07:06:15;10.40;99.90
8676;DHT22;4375;52.486;13.424;2023-03-20T07:08:42;10.30;99.90
8676;DHT22;4375;52.486;13.424;2023-03-20T07:11:08;10.40;99.90
8676;DHT22;4375;52.486;13.424;2023-03-20T07:13:34;10.40;99.90
8676;DHT22;4375;52.486;13.424;2023-03-20T07:16:00;10.50;99.90
8676;DHT22;4375;52.486;13.424;2023-03-20T07:18:26;10.50;99.90
8676;DHT22;4375;52.486;13.424;2023-03-20T07:20:52;10.40;99.90
8676;DHT22;4375;52.486;13.424;2023-03-20T07:23:18;10.50;99.90
8676;DHT22;4375;52.486;13.424;2023-03-20T07:25:44;10.40;99.90
8676;DHT22;4375;52.486;13.424;2023-03-20T07:28:11;10.30;99.90
8676;DHT22;4375;52.486;13.424;2023-03-20T07:30:37;10.40;99.90
8676;DHT22;4375;52.486;13.424;2023-03-20T07:33:02;10.30;99.90
8676;DHT22;4375;52.486;13.424;2023-03-20T07:35:28;10.40;99.90
8676;DHT22;4375;52.486;13.424;2023-03-20T07:37:54;10.40;99.90
8676;DHT22;4375;52.486;13.424;2023-03-20T07:40:20;10.30;99.90
8676;DHT22;4375;52.486;13.424;2023-03-20T07:42:45;10.30;99.90
8676;DHT22;4375;52.486;13.424;2023-03-20T07:45:12;10.10;99.90
8676;DHT22;4375;52.486;13.424;2023-03-20T07:47:38;10.20;99.90
8676;DHT22;4375;52.486;13.424;2023-03-20T07:50:05;10.10;99.90
8676;DHT22;4375;52.486;13.424;2023-03-20T07:52:30;10.10;99.90
8676;DHT22;4375;52.486;13.424;2023-03-20T07:54:56;10.10;99.90
8676;DHT22;4375;52.486;13.424;2023-03-20T07:57:22;10.00;99.90
8676;DHT22;4375;52.486;13.424;2023-03-20T07:59:47;10.00;99.90
8676;DHT22;4375;52.486;13.424;2023-03-20T08:02:14;10.10;99.90
8676;DHT22;4375;52.486;13.424;2023-03-20T08:04:41;10.10;99.90
8676;DHT22;4375;52.486;13.424;2023-03-20T08:07:07;10.20;99.90
8676;DHT22;4375;52.486;13.424;2023-03-20T08:09:32;10.30;99.90
8676;DHT22;4375;52.486;13.424;2023-03-20T08:11:58;10.60;99.90
8676;DHT22;4375;52.486;13.424;2023-03-20T08:14:24;10.70;99.90
8676;DHT22;4375;52.486;13.424;2023-03-20T08:16:49;10.80;99.90
8676;DHT22;4375;52.486;13.424;2023-03-20T08:19:15;10.80;99.90
8676;DHT22;4375;52.486;13.424;2023-03-20T08:21:41;10.90;99.90
8676;DHT22;4375;52.486;13.424;2023-03-20T08:24:07;10.80;99.90
8676;DHT22;4375;52.486;13.424;2023-03-20T08:26:34;10.80;99.90
8676;DHT22;4375;52.486;13.424;2023-03-20T08:29:00;10.80;99.90
8676;DHT22;4375;52.486;13.424;2023-03-20T08:31:25;10.80;99.90
8676;DHT22;4375;52.486;13.424;2023-03-20T08:33:51;10.80;99.90
8676;DHT22;4375;52.486;13.424;2023-03-20T08:36:17;10.70;99.90
8676;DHT22;4375;52.486;13.424;2023-03-20T08:38:47;10.70;99.90
8676;DHT22;4375;52.486;13.424;2023-03-20T08:41:13;10.60;99.90
8676;DHT22;4375;52.486;13.424;2023-03-20T08:43:39;10.60;99.90
8676;DHT22;4375;52.486;13.424;2023-03-20T08:46:05;10.70;99.90
8676;DHT22;4375;52.486;13.424;2023-03-20T08:48:31;10.90;99.90
8676;DHT22;4375;52.486;13.424;2023-03-20T08:50:57;11.10;99.90
8676;DHT22;4375;52.486;13.424;2023-03-20T08:53:23;11.30;99.90
8676;DHT22;4375;52.486;13.424;2023-03-20T08:55:50;11.70;99.90
8676;DHT22;4375;52.486;13.424;2023-03-20T08:58:17;12.20;99.90
8676;DHT22;4375;52.486;13.424;2023-03-20T09:00:43;12.40;99.90
8676;DHT22;4375;52.486;13.424;2023-03-20T09:03:19;12.80;99.90
8676;DHT22;4375;52.486;13.424;2023-03-20T09:05:46;12.90;99.90
8676;DHT22;4375;52.486;13.424;2023-03-20T09:08:12;13.00;99.90
8676;DHT22;4375;52.486;13.424;2023-03-20T09:10:38;13.30;99.90
8676;DHT22;4375;52.486;13.424;2023-03-20T09:13:05;13.20;99.90
8676;DHT22;4375;52.486;13.424;2023-03-20T09:15:31;13.10;99.90
8676;DHT22;4375;52.486;13.424;2023-03-20T09:17:57;13.00;99.90
8676;DHT22;4375;52.486;13.424;2023-03-20T09:20:23;12.80;99.90
8676;DHT22;4375;52.486;13.424;2023-03-20T09:22:48;12.70;99.90
8676;DHT22;4375;52.486;13.424;2023-03-20T09:25:14;12.70;99.90
8676;DHT22;4375;52.486;13.424;2023-03-20T09:27:40;12.60;99.90
8676;DHT22;4375;52.486;13.424;2023-03-20T09:30:06;12.40;99.90
8676;DHT22;4375;52.486;13.424;2023-03-20T09:32:33;12.50;99.90
8676;DHT22;4375;52.486;13.424;2023-03-20T09:34:59;12.60;99.90
8676;DHT22;4375;52.486;13.424;2023-03-20T09:37:25;12.40;99.90
8676;DHT22;4375;52.486;13.424;2023-03-20T09:39:51;12.40;99.90
8676;DHT22;4375;52.486;13.424;2023-03-20T09:53:50;13.20;99.90
8676;DHT22;4375;52.486;13.424;2023-03-20T09:56:24;13.10;99.90
8676;DHT22;4375;52.486;13.424;2023-03-20T09:58:58;13.30;99.90
8676;DHT22;4375;52.486;13.424;2023-03-20T10:01:47;13.30;99.90
8676;DHT22;4375;52.486;13.424;2023-03-20T10:04:14;13.00;99.90
8676;DHT22;4375;52.486;13.424;2023-03-20T10:06:40;13.00;99.90
8676;DHT22;4375;52.486;13.424;2023-03-20T10:09:24;12.90;99.90
8676;DHT22;4375;52.486;13.424;2023-03-20T10:12:16;13.00;99.90
8676;DHT22;4375;52.486;13.424;2023-03-20T10:19:58;12.90;99.90
8676;DHT22;4375;52.486;13.424;2023-03-20T10:22:30;12.80;99.90
8676;DHT22;4375;52.486;13.424;2023-03-20T10:27:50;12.60;99.90
8676;DHT22;4375;52.486;13.424;2023-03-20T10:38:41;12.60;99.90
8676;DHT22;4375;52.486;13.424;2023-03-20T10:41:24;12.80;99.90
8676;DHT22;4375;52.486;13.424;2023-03-20T10:43:54;12.70;99.90
8676;DHT22;4375;52.486;13.424;2023-03-20T10:49:41;12.80;99.90
8676;DHT22;4375;52.486;13.424;2023-03-20T10:52:16;13.10;99.90
8676;DHT22;4375;52.486;13.424;2023-03-20T10:54:47;13.10;99.90
8676;DHT22;4375;52.486;13.424;2023-03-20T10:57:27;13.00;99.90
8676;DHT22;4375;52.486;13.424;2023-03-20T10:59:55;13.00;99.90
8676;DHT22;4375;52.486;13.424;2023-03-20T11:02:24;12.90;99.90
8676;DHT22;4375;52.486;13.424;2023-03-20T11:04:50;13.00;99.90
8676;DHT22;4375;52.486;13.424;2023-03-20T11:10:11;12.70;99.90
8676;DHT22;4375;52.486;13.424;2023-03-20T11:12:41;12.70;99.90
8676;DHT22;4375;52.486;13.424;2023-03-20T11:17:55;12.60;99.90
8676;DHT22;4375;52.486;13.424;2023-03-20T11:20:21;12.60;99.90
8676;DHT22;4375;52.486;13.424;2023-03-20T11:22:49;12.70;99.90
8676;DHT22;4375;52.486;13.424;2023-03-20T11:25:43;12.70;99.90
8676;DHT22;4375;52.486;13.424;2023-03-20T11:28:38;12.70;99.90
8676;DHT22;4375;52.486;13.424;2023-03-20T11:31:06;12.90;99.90
8676;DHT22;4375;52.486;13.424;2023-03-20T11:33:43;13.00;99.90
8676;DHT22;4375;52.486;13.424;2023-03-20T11:36:30;13.10;99.90
8676;DHT22;4375;52.486;13.424;2023-03-20T11:39:13;13.20;99.90
8676;DHT22;4375;52.486;13.424;2023-03-20T11:41:46;13.30;99.90
8676;DHT22;4375;52.486;13.424;2023-03-20T11:44:31;13.50;99.90
8676;DHT22;4375;52.486;13.424;2023-03-20T11:47:09;13.40;99.90
8676;DHT22;4375;52.486;13.424;2023-03-20T11:50:05;13.70;99.90
8676;DHT22;4375;52.486;13.424;2023-03-20T11:52:36;13.80;99.90
8676;DHT22;4375;52.486;13.424;2023-03-20T11:55:06;13.80;99.90
8676;DHT22;4375;52.486;13.424;2023-03-20T11:57:44;13.70;99.90
8676;DHT22;4375;52.486;13.424;2023-03-20T12:02:36;13.50;99.90
8676;DHT22;4375;52.486;13.424;2023-03-20T12:05:31;13.30;99.90
8676;DHT22;4375;52.486;13.424;2023-03-20T12:08:23;13.20;99.90
8676;DHT22;4375;52.486;13.424;2023-03-20T12:10:56;13.20;99.90
8676;DHT22;4375;52.486;13.424;2023-03-20T12:13:32;13.20;99.90
8676;DHT22;4375;52.486;13.424;2023-03-20T12:16:06;13.30;99.90
8676;DHT22;4375;52.486;13.424;2023-03-20T12:18:48;13.30;99.90
8676;DHT22;4375;52.486;13.424;2023-03-20T12:27:27;13.30;99.90
8676;DHT22;4375;52.486;13.424;2023-03-20T12:33:06;13.20;99.90
8676;DHT22;4375;52.486;13.424;2023-03-20T12:35:40;13.60;99.90
8676;DHT22;4375;52.486;13.424;2023-03-20T12:38:29;13.60;99.90
8676;DHT22;4375;52.486;13.424;2023-03-20T12:41:12;13.70;99.90
8676;DHT22;4375;52.486;13.424;2023-03-20T12:52:20;13.30;99.90
8676;DHT22;4375;52.486;13.424;2023-03-20T13:00:45;13.30;99.90
8676;DHT22;4375;52.486;13.424;2023-03-20T13:08:25;13.20;99.90
8676;DHT22;4375;52.486;13.424;2023-03-20T13:14:42;13.10;99.90
8676;DHT22;4375;52.486;13.424;2023-03-20T13:17:08;13.00;99.90
8676;DHT22;4375;52.486;13.424;2023-03-20T13:20:22;13.10;99.90
8676;DHT22;4375;52.486;13.424;2023-03-20T13:22:35;13.00;99.90
8676;DHT22;4375;52.486;13.424;2023-03-20T13:27:58;13.10;99.90
8676;DHT22;4375;52.486;13.424;2023-03-20T13:30:34;13.10;99.90
8676;DHT22;4375;52.486;13.424;2023-03-20T13:38:23;13.30;99.90
8676;DHT22;4375;52.486;13.424;2023-03-20T13:41:00;13.40;99.90
8676;DHT22;4375;52.486;13.424;2023-03-20T13:46:50;13.40;99.90
8676;DHT22;4375;52.486;13.424;2023-03-20T13:49:22;13.30;99.90
8676;DHT22;4375;52.486;13.424;2023-03-20T14:05:10;13.40;99.90
8676;DHT22;4375;52.486;13.424;2023-03-20T14:07:40;13.40;99.90
8676;DHT22;4375;52.486;13.424;2023-03-20T14:10:33;13.30;99.90
8676;DHT22;4375;52.486;13.424;2023-03-20T14:13:12;13.20;99.90
8676;DHT22;4375;52.486;13.424;2023-03-20T14:15:51;13.20;99.90
8676;DHT22;4375;52.486;13.424;2023-03-20T14:18:18;13.30;99.90
8676;DHT22;4375;52.486;13.424;2023-03-20T14:20:53;13.20;99.90
8676;DHT22;4375;52.486;13.424;2023-03-20T14:23:28;13.20;99.90
8676;DHT22;4375;52.486;13.424;2023-03-20T14:25:56;13.10;99.90
8676;DHT22;4375;52.486;13.424;2023-03-20T14:28:27;13.00;99.90
8676;DHT22;4375;52.486;13.424;2023-03-20T14:31:25;13.00;99.90
8676;DHT22;4375;52.486;13.424;2023-03-20T14:37:01;12.80;99.90
8676;DHT22;4375;52.486;13.424;2023-03-20T14:44:50;12.60;99.90
8676;DHT22;4375;52.486;13.424;2023-03-20T14:53:17;12.60;99.90
8676;DHT22;4375;52.486;13.424;2023-03-20T14:58:46;12.50;99.90
8676;DHT22;4375;52.486;13.424;2023-03-20T15:01:43;12.50;99.90
8676;DHT22;4375;52.486;13.424;2023-03-20T15:06:50;12.50;99.90
8676;DHT22;4375;52.486;13.424;2023-03-20T15:09:19;12.50;99.90
8676;DHT22;4375;52.486;13.424;2023-03-20T15:11:46;12.40;99.90
8676;DHT22;4375;52.486;13.424;2023-03-20T15:14:23;12.40;99.90
8676;DHT22;4375;52.486;13.424;2023-03-20T15:16:56;12.40;99.90
8676;DHT22;4375;52.486;13.424;2023-03-20T15:19:23;12.50;99.90
8676;DHT22;4375;52.486;13.424;2023-03-20T15:21:48;12.50;99.90
8676;DHT22;4375;52.486;13.424;2023-03-20T15:24:29;12.50;99.90
8676;DHT22;4375;52.486;13.424;2023-03-20T15:26:59;12.50;99.90
8676;DHT22;4375;52.486;13.424;2023-03-20T15:29:26;12.50;99.90
8676;DHT22;4375;52.486;13.424;2023-03-20T15:31:57;12.60;99.90
8676;DHT22;4375;52.486;13.424;2023-03-20T15:34:29;12.60;99.90
8676;DHT22;4375;52.486;13.424;2023-03-20T15:36:57;12.60;99.90
8676;DHT22;4375;52.486;13.424;2023-03-20T15:39:26;12.70;99.90
8676;DHT22;4375;52.486;13.424;2023-03-20T15:42:08;12.70;99.90
8676;DHT22;4375;52.486;13.424;2023-03-20T15:44:42;12.70;99.90
8676;DHT22;4375;52.486;13.424;2023-03-20T15:49:36;12.70;99.90
8676;DHT22;4375;52.486;13.424;2023-03-20T15:52:48;12.70;99.90
8676;DHT22;4375;52.486;13.424;2023-03-20T15:55:02;12.60;99.90
8676;DHT22;4375;52.486;13.424;2023-03-20T15:57:34;12.70;99.90
8676;DHT22;4375;52.486;13.424;2023-03-20T16:00:03;12.60;99.90
8676;DHT22;4375;52.486;13.424;2023-03-20T16:02:29;12.60;99.90
8676;DHT22;4375;52.486;13.424;2023-03-20T16:04:55;12.60;99.90
8676;DHT22;4375;52.486;13.424;2023-03-20T16:07:30;12.50;99.90
8676;DHT22;4375;52.486;13.424;2023-03-20T16:09:56;12.60;99.90
8676;DHT22;4375;52.486;13.424;2023-03-20T16:12:22;12.50;99.90
8676;DHT22;4375;52.486;13.424;2023-03-20T16:14:49;12.40;99.90
8676;DHT22;4375;52.486;13.424;2023-03-20T16:17:18;12.40;99.90
8676;DHT22;4375;52.486;13.424;2023-03-20T16:19:45;12.40;99.90
8676;DHT22;4375;52.486;13.424;2023-03-20T16:22:29;12.40;99.90
8676;DHT22;4375;52.486;13.424;2023-03-20T16:24:59;12.40;99.90
8676;DHT22;4375;52.486;13.424;2023-03-20T16:27:33;12.30;99.90
8676;DHT22;4375;52.486;13.424;2023-03-20T16:30:04;12.40;99.90
8676;DHT22;4375;52.486;13.424;2023-03-20T16:32:35;12.30;99.90
8676;DHT22;4375;52.486;13.424;2023-03-20T16:35:06;12.30;99.90
8676;DHT22;4375;52.486;13.424;2023-03-20T16:37:47;12.40;99.90
8676;DHT22;4375;52.486;13.424;2023-03-20T16:40:21;12.30;99.90
8676;DHT22;4375;52.486;13.424;2023-03-20T16:42:48;12.20;99.90
8676;DHT22;4375;52.486;13.424;2023-03-20T16:45:29;12.30;99.90
8676;DHT22;4375;52.486;13.424;2023-03-20T16:50:41;12.20;99.90
8676;DHT22;4375;52.486;13.424;2023-03-20T16:53:13;12.20;99.90
8676;DHT22;4375;52.486;13.424;2023-03-20T16:55:46;12.20;99.90
8676;DHT22;4375;52.486;13.424;2023-03-20T16:58:24;12.20;99.90
8676;DHT22;4375;52.486;13.424;2023-03-20T17:00:57;12.20;99.90
8676;DHT22;4375;52.486;13.424;2023-03-20T17:03:44;12.10;99.90
8676;DHT22;4375;52.486;13.424;2023-03-20T17:09:22;12.00;99.90
8676;DHT22;4375;52.486;13.424;2023-03-20T17:12:34;11.90;99.90
8676;DHT22;4375;52.486;13.424;2023-03-20T17:14:34;12.00;99.90
8676;DHT22;4375;52.486;13.424;2023-03-20T17:17:00;12.10;99.90
8676;DHT22;4375;52.486;13.424;2023-03-20T17:19:26;11.90;99.90
8676;DHT22;4375;52.486;13.424;2023-03-20T17:21:51;11.90;99.90
8676;DHT22;4375;52.486;13.424;2023-03-20T17:24:17;11.90;99.90
8676;DHT22;4375;52.486;13.424;2023-03-20T17:26:48;11.90;99.90
8676;DHT22;4375;52.486;13.424;2023-03-20T17:29:15;11.90;99.90
8676;DHT22;4375;52.486;13.424;2023-03-20T17:31:41;11.80;99.90
8676;DHT22;4375;52.486;13.424;2023-03-20T17:34:11;11.80;99.90
8676;DHT22;4375;52.486;13.424;2023-03-20T17:36:37;11.80;99.90
8676;DHT22;4375;52.486;13.424;2023-03-20T17:39:03;11.80;99.90
8676;DHT22;4375;52.486;13.424;2023-03-20T17:41:29;11.70;99.90
8676;DHT22;4375;52.486;13.424;2023-03-20T17:43:54;11.70;99.90
8676;DHT22;4375;52.486;13.424;2023-03-20T17:46:28;11.70;99.90
8676;DHT22;4375;52.486;13.424;2023-03-20T17:49:03;11.70;99.90
8676;DHT22;4375;52.486;13.424;2023-03-20T17:51:29;11.80;99.90
8676;DHT22;4375;52.486;13.424;2023-03-20T17:53:55;11.80;99.90
8676;DHT22;4375;52.486;13.424;2023-03-20T17:56:24;11.80;99.90
8676;DHT22;4375;52.486;13.424;2023-03-20T17:58:57;11.70;99.90
8676;DHT22;4375;52.486;13.424;2023-03-20T18:01:23;11.70;99.90
8676;DHT22;4375;52.486;13.424;2023-03-20T18:03:49;11.60;99.90
8676;DHT22;4375;52.486;13.424;2023-03-20T18:06:30;11.60;99.90
8676;DHT22;4375;52.486;13.424;2023-03-20T18:08:56;11.60;99.90
8676;DHT22;4375;52.486;13.424;2023-03-20T18:11:23;11.60;99.90
8676;DHT22;4375;52.486;13.424;2023-03-20T18:13:49;11.50;99.90
8676;DHT22;4375;52.486;13.424;2023-03-20T18:16:18;11.60;99.90
8676;DHT22;4375;52.486;13.424;2023-03-20T18:18:44;11.50;99.90
8676;DHT22;4375;52.486;13.424;2023-03-20T18:21:10;11.50;99.90
8676;DHT22;4375;52.486;13.424;2023-03-20T18:23:36;11.50;99.90
8676;DHT22;4375;52.486;13.424;2023-03-20T18:26:02;11.50;99.90
8676;DHT22;4375;52.486;13.424;2023-03-20T18:28:28;11.50;99.90
8676;DHT22;4375;52.486;13.424;2023-03-20T18:30:54;11.50;99.90
8676;DHT22;4375;52.486;13.424;2023-03-20T18:33:19;11.50;99.90
8676;DHT22;4375;52.486;13.424;2023-03-20T18:35:51;11.50;99.90
8676;DHT22;4375;52.486;13.424;2023-03-20T18:38:17;11.50;99.90
8676;DHT22;4375;52.486;13.424;2023-03-20T18:40:42;11.50;99.90
8676;DHT22;4375;52.486;13.424;2023-03-20T18:43:11;11.50;99.90
8676;DHT22;4375;52.486;13.424;2023-03-20T18:45:37;11.50;99.90